createdAt,value
2022-09-03T00:02:39.519Z,14.55
2022-09-03T00:05:32.663Z,16.88
2022-09-03T00:08:12.709Z,16.50
2022-09-03T00:10:56.517Z,14.13
2022-09-03T00:13:44.859Z,14.32
2022-09-03T00:16:14.069Z,15.63
2022-09-03T00:18:46.605Z,17.63
2022-09-03T00:21:29.081Z,16.02
2022-09-03T00:23:56.355Z,15.48
2022-09-03T00:26:29.058Z,18.23
2022-09-03T00:29:14.088Z,14.77
2022-09-03T00:31:48.578Z,17.17
2022-09-03T00:34:41.019Z,15.38
2022-09-03T00:37:14.462Z,15.15
2022-09-03T00:39:43.124Z,15.88
2022-09-03T00:42:52.160Z,16.52
2022-09-03T00:45:34.183Z,18.35
2022-09-03T00:48:07.973Z,14.18
2022-09-03T00:51:09.110Z,16.20
2022-09-03T00:54:04.782Z,18.38
2022-09-03T00:56:52.674Z,16.27
2022-09-03T00:59:25.847Z,14.98
2022-09-03T01:02:22.400Z,18.38
2022-09-03T01:04:58.769Z,16.48
2022-09-03T01:07:38.989Z,17.08
2022-09-03T01:10:32.408Z,18.13
2022-09-03T01:13:08.519Z,16.38
2022-09-03T01:15:38.887Z,16.20
2022-09-03T01:20:45.626Z,18.40
2022-09-03T01:23:43.746Z,18.25
2022-09-03T01:26:32.071Z,19.58
2022-09-03T01:29:23.518Z,20.20
2022-09-03T01:32:15.885Z,20.17
2022-09-03T01:34:43.052Z,17.27
2022-09-03T01:37:24.919Z,20.45
2022-09-03T01:40:08.173Z,19.35
2022-09-03T01:42:54.592Z,22.52
2022-09-03T01:45:34.300Z,22.27
2022-09-03T01:48:08.064Z,21.10
2022-09-03T01:50:51.628Z,25.15
2022-09-03T01:53:57.825Z,24.00
2022-09-03T01:56:46.473Z,24.77
2022-09-03T01:59:28.157Z,24.08
2022-09-03T02:02:00.851Z,22.80
2022-09-03T02:04:28.762Z,20.92
2022-09-03T02:06:57.672Z,25.75
2022-09-03T02:09:25.160Z,17.98
2022-09-03T02:12:08.812Z,18.27
2022-09-03T02:14:36.342Z,22.52
2022-09-03T02:17:03.703Z,20.60
2022-09-03T02:19:30.926Z,20.67
2022-09-03T02:21:58.201Z,21.38
2022-09-03T02:24:25.462Z,22.98
2022-09-03T02:26:53.388Z,21.58
2022-09-03T02:29:20.933Z,24.30
2022-09-03T02:31:48.025Z,24.42
2022-09-03T02:34:15.129Z,24.17
2022-09-03T02:36:46.066Z,23.15
2022-09-03T02:39:14.003Z,23.23
2022-09-03T02:41:41.212Z,25.17
2022-09-03T02:44:08.537Z,26.63
2022-09-03T02:46:44.765Z,27.90
2022-09-03T02:49:12.007Z,26.83
2022-09-03T02:51:44.028Z,27.65
2022-09-03T02:54:11.574Z,29.80
2022-09-03T02:56:38.983Z,26.48
2022-09-03T02:59:06.989Z,29.70
2022-09-03T03:01:34.288Z,28.90
2022-09-03T03:04:02.172Z,31.52
2022-09-03T03:06:29.236Z,29.38
2022-09-03T03:08:57.899Z,29.35
2022-09-03T03:11:27.516Z,27.00
2022-09-03T03:13:54.597Z,27.02
2022-09-03T03:16:21.719Z,26.10
2022-09-03T03:18:49.371Z,27.20
2022-09-03T03:21:17.319Z,27.88
2022-09-03T03:23:44.474Z,31.27
2022-09-03T03:26:13.838Z,29.75
2022-09-03T03:28:42.562Z,27.83
2022-09-03T03:31:17.440Z,28.20
2022-09-03T03:33:44.664Z,27.58
2022-09-03T03:36:13.855Z,26.50
2022-09-03T03:38:44.425Z,28.45
2022-09-03T03:41:19.315Z,28.10
2022-09-03T03:43:46.490Z,26.55
2022-09-03T03:46:15.378Z,29.70
2022-09-03T03:48:42.852Z,25.58
2022-09-03T03:51:10.270Z,26.38
2022-09-03T03:53:38.239Z,27.88
2022-09-03T03:56:07.097Z,28.90
2022-09-03T03:58:34.559Z,29.13
2022-09-03T04:01:12.646Z,27.17
2022-09-03T04:03:40.040Z,29.50
2022-09-03T04:06:07.881Z,28.60
2022-09-03T04:08:39.414Z,27.77
2022-09-03T04:11:08.166Z,30.45
2022-09-03T04:13:36.733Z,31.23
2022-09-03T04:16:13.575Z,28.67
2022-09-03T04:18:41.047Z,31.83
2022-09-03T04:21:12.505Z,25.65
2022-09-03T04:23:44.053Z,29.27
2022-09-03T04:26:12.992Z,31.55
2022-09-03T04:28:42.079Z,29.88
2022-09-03T04:31:10.695Z,28.63
2022-09-03T04:33:41.016Z,29.50
2022-09-03T04:36:13.154Z,31.50
2022-09-03T04:38:44.466Z,32.50
2022-09-03T04:41:13.066Z,31.60
2022-09-03T04:43:42.676Z,30.83
2022-09-03T04:46:14.486Z,29.27
2022-09-03T04:48:47.613Z,31.13
2022-09-03T04:51:15.558Z,37.75
2022-09-03T04:53:44.140Z,35.38
2022-09-03T04:56:21.627Z,28.65
2022-09-03T04:58:49.233Z,30.67
2022-09-03T05:01:19.857Z,30.30
2022-09-03T05:03:47.311Z,33.50
2022-09-03T05:06:17.347Z,33.60
2022-09-03T05:08:48.562Z,32.00
2022-09-03T05:11:16.665Z,35.25
2022-09-03T05:13:44.162Z,30.58
2022-09-03T05:16:13.427Z,30.73
2022-09-03T05:18:42.499Z,34.20
2022-09-03T05:21:17.477Z,34.80
2022-09-03T05:23:48.831Z,30.35
2022-09-03T05:26:26.896Z,29.85
2022-09-03T05:29:02.321Z,31.77
2022-09-03T05:31:32.268Z,31.17
2022-09-03T05:34:01.952Z,32.80
2022-09-03T05:36:35.051Z,31.02
2022-09-03T05:39:05.318Z,46.22
2022-09-03T05:44:04.374Z,34.70
2022-09-03T05:46:33.565Z,32.88
2022-09-03T05:49:05.787Z,35.10
2022-09-03T05:52:43.439Z,30.50
2022-09-03T05:55:13.546Z,33.17
2022-09-03T05:57:46.246Z,35.38
2022-09-03T06:00:13.551Z,33.10
2022-09-03T06:02:40.901Z,34.78
2022-09-03T06:05:08.361Z,33.90
2022-09-03T06:07:35.557Z,30.30
2022-09-03T06:10:04.511Z,32.25
2022-09-03T06:12:34.340Z,33.95
2022-09-03T06:15:02.074Z,33.85
2022-09-03T06:17:29.276Z,32.45
2022-09-03T06:19:56.604Z,34.65
2022-09-03T06:22:25.828Z,36.13
2022-09-03T06:24:54.672Z,35.97
2022-09-03T06:27:21.775Z,35.05
2022-09-03T06:29:49.174Z,36.63
2022-09-03T06:32:16.826Z,35.30
2022-09-03T06:34:44.236Z,44.03
2022-09-03T06:37:11.381Z,38.15
2022-09-03T06:39:38.833Z,34.95
2022-09-03T06:42:06.094Z,53.33
2022-09-03T06:44:36.676Z,39.90
2022-09-03T06:47:03.874Z,35.38
2022-09-03T06:49:31.999Z,40.55
2022-09-03T06:51:59.150Z,44.30
2022-09-03T06:54:28.708Z,43.63
2022-09-03T06:56:55.801Z,40.30
2022-09-03T06:59:23.004Z,40.22
2022-09-03T07:01:50.470Z,39.45
2022-09-03T07:04:20.122Z,40.42
2022-09-03T07:06:47.653Z,39.22
2022-09-03T07:09:15.950Z,39.47
2022-09-03T07:11:48.180Z,40.10
2022-09-03T07:14:17.742Z,34.08
2022-09-03T07:16:46.266Z,29.83
2022-09-03T07:19:13.791Z,34.45
2022-09-03T07:21:49.166Z,34.30
2022-09-03T07:24:16.683Z,32.83
2022-09-03T07:26:49.033Z,28.25
2022-09-03T07:29:16.644Z,30.42
2022-09-03T07:31:44.171Z,28.67
2022-09-03T07:34:13.323Z,26.92
2022-09-03T07:36:48.696Z,28.00
2022-09-03T07:39:16.729Z,23.98
2022-09-03T07:41:45.901Z,20.60
2022-09-03T07:44:15.471Z,17.70
2022-09-03T07:46:43.893Z,16.45
2022-09-03T07:49:11.133Z,18.02
2022-09-03T07:51:38.969Z,15.18
2022-09-03T07:54:08.547Z,16.85
2022-09-03T07:59:20.894Z,16.55
2022-09-03T08:01:48.427Z,15.07
2022-09-03T08:04:38.805Z,13.65
2022-09-03T08:07:07.061Z,11.70
2022-09-03T08:09:36.181Z,13.30
2022-09-03T08:12:40.328Z,12.10
2022-09-03T08:15:08.587Z,12.10
2022-09-03T08:17:35.852Z,9.82
2022-09-03T08:20:04.665Z,12.07
2022-09-03T08:22:35.330Z,11.40
2022-09-03T08:25:03.120Z,11.80
2022-09-03T08:27:40.186Z,11.70
2022-09-03T08:30:11.788Z,12.23
2022-09-03T08:33:12.984Z,11.57
2022-09-03T08:36:00.150Z,12.40
2022-09-03T08:38:35.709Z,11.77
2022-09-03T08:41:14.885Z,10.32
2022-09-03T08:44:42.224Z,12.57
2022-09-03T08:47:12.889Z,11.63
2022-09-03T08:50:04.316Z,10.75
2022-09-03T08:52:38.515Z,11.07
2022-09-03T08:55:31.942Z,12.50
2022-09-03T08:58:36.464Z,10.07
2022-09-03T09:01:20.001Z,9.95
2022-09-03T09:04:02.871Z,9.35
2022-09-03T09:10:55.743Z,9.95
2022-09-03T09:13:57.154Z,10.20
2022-09-03T09:19:52.020Z,9.45
2022-09-03T09:22:25.615Z,9.88
2022-09-03T09:24:52.871Z,9.55
2022-09-03T09:27:20.582Z,10.85
2022-09-03T09:31:27.585Z,11.35
2022-09-03T09:33:55.083Z,9.98
2022-09-03T09:36:22.331Z,11.13
2022-09-03T09:38:49.477Z,9.73
2022-09-03T09:41:17.415Z,11.60
2022-09-03T09:43:45.725Z,11.45
2022-09-03T09:46:13.676Z,9.85
2022-09-03T09:49:25.184Z,8.93
2022-09-03T09:52:02.380Z,9.00
2022-09-03T09:54:35.202Z,8.45
2022-09-03T09:57:08.276Z,7.28
2022-09-03T09:59:38.359Z,8.18
2022-09-03T10:02:13.741Z,7.30
2022-09-03T10:04:50.171Z,8.73
2022-09-03T10:07:20.192Z,7.13
2022-09-03T10:09:58.652Z,8.27
2022-09-03T10:13:19.593Z,6.57
2022-09-03T10:16:09.999Z,7.22
2022-09-03T10:19:06.580Z,8.77
2022-09-03T10:30:28.884Z,8.32
2022-09-03T10:49:14.265Z,5.90
2022-09-03T10:52:12.619Z,6.55
2022-09-03T10:55:07.921Z,6.10
2022-09-03T10:57:56.935Z,5.63
2022-09-03T11:00:24.713Z,3.80
2022-09-03T11:03:04.231Z,4.85
2022-09-03T11:05:57.645Z,6.82
2022-09-03T11:08:47.382Z,4.32
2022-09-03T11:11:28.202Z,4.18
2022-09-03T11:14:09.027Z,4.63
2022-09-03T11:16:44.208Z,5.63
2022-09-03T11:19:16.179Z,4.50
2022-09-03T11:21:44.298Z,5.15
2022-09-03T11:24:17.597Z,4.22
2022-09-03T11:27:33.155Z,6.32
2022-09-03T11:29:47.166Z,4.85
2022-09-03T11:32:55.925Z,5.00
2022-09-03T11:35:29.547Z,5.05
2022-09-03T11:38:01.340Z,5.20
2022-09-03T11:40:38.944Z,5.53
2022-09-03T11:43:32.863Z,5.63
2022-09-03T11:46:05.251Z,5.20
2022-09-03T11:48:39.932Z,4.53
2022-09-03T11:51:27.151Z,4.32
2022-09-03T11:53:58.549Z,5.57
2022-09-03T11:56:25.938Z,5.05
2022-09-03T11:59:16.815Z,4.20
2022-09-03T12:02:01.900Z,5.25
2022-09-03T12:04:41.507Z,6.78
2022-09-03T12:07:36.679Z,6.22
2022-09-03T12:10:10.678Z,5.22
2022-09-03T12:12:48.686Z,5.88
2022-09-03T12:16:11.431Z,8.93
2022-09-03T12:18:39.920Z,6.80
2022-09-03T12:21:09.214Z,6.63
2022-09-03T12:23:45.057Z,4.90
2022-09-03T12:26:16.784Z,5.55
2022-09-03T12:28:48.855Z,5.10
2022-09-03T12:31:32.064Z,4.60
2022-09-03T12:34:01.040Z,5.85
2022-09-03T12:36:38.363Z,5.53
2022-09-03T12:42:31.744Z,3.72
2022-09-03T12:53:34.891Z,4.70
2022-09-03T12:56:04.076Z,4.30
2022-09-03T12:58:56.371Z,5.40
2022-09-03T13:01:31.993Z,3.50
2022-09-03T13:04:11.200Z,4.03
2022-09-03T13:07:06.650Z,3.60
2022-09-03T13:09:36.615Z,4.15
2022-09-03T13:12:06.004Z,4.75
2022-09-03T13:14:47.971Z,5.03
2022-09-03T13:17:25.431Z,4.28
2022-09-03T13:20:02.926Z,3.88
2022-09-03T13:22:41.930Z,4.50
2022-09-03T13:25:46.534Z,3.95
2022-09-03T13:28:22.632Z,5.05
2022-09-03T13:30:56.871Z,4.38
2022-09-03T13:33:26.535Z,4.43
2022-09-03T13:36:17.056Z,3.83
2022-09-03T13:38:50.623Z,3.55
2022-09-03T13:41:38.882Z,4.38
2022-09-03T13:44:11.630Z,3.92
2022-09-03T13:47:06.022Z,3.95
2022-09-03T13:50:13.760Z,4.57
2022-09-03T13:52:47.303Z,4.57
2022-09-03T13:55:48.409Z,5.10
2022-09-03T13:58:35.069Z,3.75
2022-09-03T14:01:20.497Z,3.88
2022-09-03T14:03:54.140Z,4.72
2022-09-03T14:06:41.389Z,4.13
2022-09-03T14:09:21.922Z,4.20
2022-09-03T14:12:15.815Z,4.00
2022-09-03T14:14:55.227Z,5.85
2022-09-03T14:17:49.601Z,4.15
2022-09-03T14:20:27.313Z,4.80
2022-09-03T14:23:04.341Z,6.03
2022-09-03T14:25:34.305Z,5.00
2022-09-03T14:28:34.839Z,6.93
2022-09-03T14:31:08.269Z,6.18
2022-09-03T14:34:03.762Z,5.18
2022-09-03T14:36:45.039Z,4.15
2022-09-03T14:39:24.597Z,5.70
2022-09-03T14:42:06.640Z,4.57
2022-09-03T14:44:39.355Z,4.10
2022-09-03T14:47:19.893Z,5.43
2022-09-03T14:50:35.613Z,6.35
2022-09-03T14:53:12.865Z,4.05
2022-09-03T14:56:11.224Z,5.15
2022-09-03T14:58:58.732Z,5.35
2022-09-03T15:01:38.996Z,4.53
2022-09-03T15:04:24.961Z,4.35
2022-09-03T15:07:25.345Z,4.72
2022-09-03T15:10:04.670Z,6.05
2022-09-03T15:12:39.335Z,5.05
2022-09-03T15:15:12.205Z,5.65
2022-09-03T15:18:03.085Z,4.80
2022-09-03T15:20:51.107Z,5.00
2022-09-03T15:23:43.701Z,5.95
2022-09-03T15:26:49.752Z,5.47
2022-09-03T15:29:37.115Z,6.63
2022-09-03T15:32:29.232Z,6.93
2022-09-03T15:35:09.217Z,6.40
2022-09-03T15:37:49.621Z,5.18
2022-09-03T15:40:37.192Z,7.82
2022-09-03T15:43:11.626Z,6.35
2022-09-03T15:45:47.983Z,8.00
2022-09-03T15:48:24.367Z,7.22
2022-09-03T15:51:11.949Z,8.82
2022-09-03T15:53:55.890Z,7.07
2022-09-03T15:56:38.726Z,7.45
2022-09-03T15:59:25.694Z,7.78
2022-09-03T16:01:56.941Z,8.52
2022-09-03T16:04:32.847Z,5.85
2022-09-03T16:07:27.994Z,7.32
2022-09-03T16:10:28.440Z,7.05
2022-09-03T16:13:25.103Z,7.75
2022-09-03T16:16:03.499Z,7.70
2022-09-03T16:18:52.749Z,7.57
2022-09-03T16:21:40.032Z,6.93
2022-09-03T16:24:16.540Z,9.25
2022-09-03T16:26:56.922Z,8.50
2022-09-03T16:29:28.603Z,9.73
2022-09-03T16:32:07.883Z,8.85
2022-09-03T16:35:01.942Z,6.55
2022-09-03T16:37:32.659Z,9.00
2022-09-03T16:40:15.584Z,6.32
2022-09-03T16:42:57.752Z,8.73
2022-09-03T16:45:48.106Z,7.22
2022-09-03T16:48:47.271Z,7.60
2022-09-03T16:51:24.925Z,8.30
2022-09-03T16:54:07.682Z,7.10
2022-09-03T16:56:39.190Z,5.63
2022-09-03T16:59:25.587Z,6.70
2022-09-03T17:02:30.025Z,9.88
2022-09-03T17:05:18.455Z,6.78
2022-09-03T17:08:09.333Z,6.20
2022-09-03T17:10:56.247Z,7.80
2022-09-03T17:13:37.826Z,7.00
2022-09-03T17:16:39.760Z,8.57
2022-09-03T17:19:22.149Z,8.55
2022-09-03T17:22:02.897Z,8.02
2022-09-03T17:24:45.161Z,10.57
2022-09-03T17:27:21.276Z,8.23
2022-09-03T17:30:15.875Z,7.00
2022-09-03T17:32:57.639Z,8.32
2022-09-03T17:35:41.911Z,6.63
2022-09-03T17:38:16.712Z,7.85
2022-09-03T17:40:56.277Z,7.50
2022-09-03T17:43:43.913Z,6.80
2022-09-03T17:46:21.097Z,8.00
2022-09-03T17:48:52.803Z,8.75
2022-09-03T17:51:40.129Z,9.93
2022-09-03T17:54:25.452Z,7.55
2022-09-03T17:57:31.548Z,10.10
2022-09-03T18:00:05.052Z,8.40
2022-09-03T18:03:02.993Z,8.88
2022-09-03T18:05:33.417Z,8.20
2022-09-03T18:08:09.873Z,9.63
2022-09-03T18:11:10.027Z,10.63
2022-09-03T18:18:37.224Z,13.73
2022-09-03T18:21:31.497Z,14.70
2022-09-03T18:24:50.699Z,7.70
2022-09-03T18:27:38.199Z,7.55
2022-09-03T18:30:29.214Z,9.68
2022-09-03T18:33:15.716Z,9.35
2022-09-03T18:36:04.946Z,9.25
2022-09-03T18:38:53.025Z,9.55
2022-09-03T18:42:07.636Z,7.93
2022-09-03T18:45:21.039Z,12.57
2022-09-03T18:48:18.104Z,11.35
2022-09-03T18:51:11.031Z,9.65
2022-09-03T18:54:09.549Z,9.88
2022-09-03T18:57:08.923Z,8.70
2022-09-03T19:00:17.337Z,9.02
2022-09-03T19:03:15.642Z,10.88
2022-09-03T19:06:26.802Z,10.45
2022-09-03T19:09:50.771Z,9.18
2022-09-03T19:13:29.245Z,9.65
2022-09-03T19:16:36.228Z,6.60
2022-09-03T19:20:02.876Z,10.30
2022-09-03T19:22:58.297Z,8.25
2022-09-03T19:25:45.679Z,10.18
2022-09-03T19:28:42.754Z,8.40
2022-09-03T19:31:45.240Z,11.63
2022-09-03T19:34:55.398Z,9.02
2022-09-03T19:53:53.621Z,9.75
2022-09-03T19:56:46.273Z,7.47
2022-09-03T19:59:38.006Z,8.38
2022-09-03T20:02:24.382Z,7.90
2022-09-03T20:05:17.897Z,8.40
2022-09-03T20:08:08.330Z,9.18
2022-09-03T20:10:36.141Z,8.25
2022-09-03T20:13:13.831Z,9.77
2022-09-03T20:16:07.912Z,8.48
2022-09-03T20:18:54.840Z,8.43
2022-09-03T20:21:26.376Z,8.55
2022-09-03T20:24:11.402Z,9.77
2022-09-03T20:26:47.786Z,8.48
2022-09-03T20:29:23.420Z,9.18
2022-09-03T20:32:18.001Z,8.00
2022-09-03T20:34:57.437Z,9.05
2022-09-03T20:37:53.705Z,7.18
2022-09-03T20:41:02.143Z,8.48
2022-09-03T20:44:08.409Z,9.27
2022-09-03T20:46:46.051Z,9.65
2022-09-03T20:49:40.599Z,8.82
2022-09-03T20:52:10.942Z,9.77
2022-09-03T20:55:22.643Z,7.28
2022-09-03T20:57:53.142Z,7.93
2022-09-03T21:00:21.267Z,8.88
2022-09-03T21:02:56.869Z,10.85
2022-09-03T21:05:34.504Z,9.30
2022-09-03T21:08:11.549Z,10.68
2022-09-03T21:10:48.729Z,10.30
2022-09-03T21:13:16.297Z,15.23
2022-09-03T21:16:21.323Z,7.65
2022-09-03T21:19:33.179Z,8.32
2022-09-03T21:22:14.734Z,8.68
2022-09-03T21:24:52.810Z,11.45
2022-09-03T21:27:21.476Z,8.95
2022-09-03T21:30:07.015Z,11.30
2022-09-03T21:32:36.385Z,12.27
2022-09-03T21:35:33.979Z,10.13
2022-09-03T21:38:20.938Z,9.68
2022-09-03T21:41:01.052Z,10.75
2022-09-03T21:43:32.562Z,10.65
2022-09-03T21:46:15.554Z,7.60
2022-09-03T21:48:56.852Z,9.60
2022-09-03T21:51:29.789Z,8.75
2022-09-03T21:54:04.530Z,13.40
2022-09-03T21:57:09.594Z,8.02
2022-09-03T21:59:36.712Z,8.77
2022-09-03T22:02:25.746Z,9.77
2022-09-03T22:04:54.254Z,9.35
2022-09-03T22:07:36.564Z,9.15
2022-09-03T22:10:23.088Z,11.85
2022-09-03T22:13:09.497Z,10.07
2022-09-03T22:15:38.400Z,10.25
2022-09-03T22:18:15.908Z,11.77
2022-09-03T22:20:45.679Z,9.38
2022-09-03T22:23:20.607Z,10.90
2022-09-03T22:26:03.424Z,11.23
2022-09-03T22:28:49.602Z,9.05
2022-09-03T22:31:49.414Z,9.02
2022-09-03T22:34:38.474Z,10.02
2022-09-03T22:37:07.173Z,10.38
2022-09-03T22:39:41.814Z,11.18
2022-09-03T22:42:32.308Z,12.80
2022-09-03T22:45:06.925Z,12.75
2022-09-03T22:47:37.631Z,11.25
2022-09-03T22:50:52.343Z,12.45
2022-09-03T22:53:32.285Z,13.48
2022-09-03T22:56:00.893Z,10.77
2022-09-03T22:58:34.443Z,9.63
2022-09-03T23:01:09.864Z,10.10
2022-09-03T23:03:51.308Z,11.48
2022-09-03T23:06:25.545Z,12.20
2022-09-03T23:08:59.692Z,12.32
2022-09-03T23:11:53.288Z,12.23
2022-09-03T23:14:48.871Z,12.20
2022-09-03T23:22:59.913Z,11.25
2022-09-03T23:25:36.339Z,10.32
2022-09-03T23:28:09.469Z,12.00
2022-09-03T23:31:14.099Z,13.82
2022-09-03T23:33:41.662Z,10.68
2022-09-03T23:36:36.782Z,10.68
2022-09-03T23:39:32.598Z,11.70
2022-09-03T23:42:21.107Z,10.30
2022-09-03T23:49:32.621Z,13.52
2022-09-03T23:52:26.093Z,10.50
